Neil Armstrong (AXV)

 

Airport Diagram
No Airport Diagram Available
Current Weather/Forecast (LIFR Conditions)
METAR KAXV 191515Z AUTO 01007KT 4SM -DZ OVC004 07/06 A3020 RMK AO2
TAF

Airport Information

All Charts
General
Chart Name View
TAKEOFF MINIMUMS
TAKEOFF MINIMUMS

Approaches
Chart Name Download
RNAV (GPS) RWY 08
RNAV (GPS) RWY 26
VOR-A
RNAV (GPS) RWY 08
RNAV (GPS) RWY 26
VOR-A


Airport Statistics
Departures Arrivals Local
All Collected Stats since June 2016: 4 15 0
2020 Stats: 3 2 0
October Stats: 0 0 0

Inbound Traffic (Arrivals) - 0

No inbound traffic.


Outbound Traffic (Departures) - 0

No outbound traffic.


Local Traffic (Pattern) - 0

No local traffic.